createdAt,value
2019-04-14T00:01:28.378Z,4.00
2019-04-14T00:06:35.185Z,4.00
2019-04-14T00:11:41.673Z,3.90
2019-04-14T00:16:46.797Z,3.90
2019-04-14T00:21:52.226Z,3.90
2019-04-14T00:26:57.381Z,3.90
2019-04-14T00:32:03.068Z,3.80
2019-04-14T00:37:10.211Z,3.80
2019-04-14T00:42:16.942Z,3.80
2019-04-14T00:47:24.627Z,3.80
2019-04-14T00:52:29.873Z,3.80
2019-04-14T00:57:35.526Z,3.80
2019-04-14T01:03:19.934Z,3.80
2019-04-14T01:08:27.044Z,3.80
2019-04-14T01:13:33.291Z,3.80
2019-04-14T01:18:38.682Z,3.90
2019-04-14T01:23:45.506Z,3.80
2019-04-14T01:28:51.048Z,3.90
2019-04-14T01:34:00.460Z,3.90
2019-04-14T01:39:46.037Z,3.90
2019-04-14T01:44:52.538Z,3.90
2019-04-14T01:49:57.735Z,4.00
2019-04-14T01:55:04.807Z,4.00
2019-04-14T02:00:12.017Z,4.10
2019-04-14T02:05:19.234Z,4.10
2019-04-14T02:11:00.904Z,4.10
2019-04-14T02:16:18.739Z,4.10
2019-04-14T02:21:49.886Z,4.10
2019-04-14T02:26:54.957Z,4.10
2019-04-14T02:33:05.355Z,4.10
2019-04-14T02:38:14.277Z,4.10
2019-04-14T02:43:57.964Z,4.10
2019-04-14T02:48:58.753Z,4.20
2019-04-14T02:54:51.231Z,4.10
2019-04-14T02:59:52.936Z,4.20
2019-04-14T03:05:37.203Z,4.20
2019-04-14T03:10:42.154Z,4.20
2019-04-14T03:15:48.196Z,4.30
2019-04-14T03:20:59.066Z,4.30
2019-04-14T03:26:00.963Z,4.30
2019-04-14T03:37:43.020Z,4.30
2019-04-14T03:41:37.256Z,4.30
2019-04-14T03:56:57.918Z,4.40
2019-04-14T04:02:03.218Z,4.40
2019-04-14T04:07:10.221Z,4.50
2019-04-14T04:12:51.786Z,4.50
2019-04-14T04:17:58.384Z,4.60
2019-04-14T04:23:07.392Z,4.50
2019-04-14T04:28:51.790Z,4.60
2019-04-14T04:34:01.076Z,4.60
2019-04-14T04:39:47.867Z,4.60
2019-04-14T04:44:53.274Z,4.80
2019-04-14T04:49:58.373Z,4.70
2019-04-14T04:55:04.607Z,4.80
2019-04-14T05:00:11.430Z,4.80
2019-04-14T05:05:20.817Z,4.80
2019-04-14T05:11:05.401Z,4.80
2019-04-14T05:16:10.766Z,4.80
2019-04-14T05:21:16.995Z,4.80
2019-04-14T05:26:22.652Z,4.80
2019-04-14T05:31:29.074Z,4.80
2019-04-14T05:36:34.623Z,4.80
2019-04-14T05:42:20.243Z,5.00
2019-04-14T05:47:24.031Z,5.00
2019-04-14T05:53:06.779Z,5.20
2019-04-14T05:58:12.178Z,5.30
2019-04-14T06:03:17.520Z,5.40
2019-04-14T06:08:27.037Z,5.50
2019-04-14T06:14:13.137Z,5.50
2019-04-14T06:19:18.302Z,5.40
2019-04-14T06:24:23.222Z,5.40
2019-04-14T06:29:28.956Z,5.40
2019-04-14T06:35:13.289Z,5.40
2019-04-14T06:40:19.756Z,5.40
2019-04-14T06:46:05.193Z,5.50
2019-04-14T06:51:10.165Z,5.60
2019-04-14T06:56:15.415Z,5.80
2019-04-14T07:01:27.316Z,5.90
2019-04-14T07:06:34.827Z,6.20
2019-04-14T07:11:39.777Z,6.60
2019-04-14T07:17:25.859Z,6.90
2019-04-14T07:35:17.324Z,8.10
2019-04-14T07:40:25.982Z,8.20
2019-04-14T07:46:10.135Z,8.30
2019-04-14T07:51:17.623Z,8.50
2019-04-14T07:57:01.542Z,9.20
2019-04-14T08:02:10.034Z,9.70
2019-04-14T08:07:55.385Z,10.10
2019-04-14T08:13:02.003Z,10.50
2019-04-14T08:18:23.359Z,10.80
2019-04-14T08:23:28.233Z,11.00
2019-04-14T08:28:33.123Z,11.60
2019-04-14T08:33:58.266Z,12.20
2019-04-14T08:39:03.496Z,12.70
2019-04-14T08:44:10.349Z,12.50
2019-04-14T08:49:54.168Z,12.80
2019-04-14T08:55:00.673Z,12.90
2019-04-14T09:00:08.366Z,13.30
2019-04-14T09:05:14.926Z,13.80
2019-04-14T09:10:21.428Z,13.50
2019-04-14T09:16:04.156Z,13.20
2019-04-14T09:21:09.067Z,12.80
2019-04-14T09:26:14.165Z,12.60
2019-04-14T09:31:57.399Z,12.80
2019-04-14T09:37:02.455Z,13.10
2019-04-14T09:42:07.642Z,13.40
2019-04-14T09:47:49.092Z,13.70
2019-04-14T09:52:56.019Z,14.10
2019-04-14T09:58:00.773Z,14.70
2019-04-14T10:03:05.845Z,15.00
2019-04-14T10:08:11.144Z,15.40
2019-04-14T10:13:16.013Z,16.70
2019-04-14T10:18:20.929Z,18.40
2019-04-14T10:23:25.835Z,18.90
2019-04-14T10:28:30.761Z,18.70
2019-04-14T10:33:35.536Z,17.70
2019-04-14T10:38:40.696Z,18.10
2019-04-14T10:43:45.528Z,20.10
2019-04-14T10:48:50.414Z,19.20
2019-04-14T10:53:55.370Z,18.90
2019-04-14T10:59:00.244Z,21.30
2019-04-14T11:04:07.912Z,21.20
2019-04-14T11:09:13.319Z,23.50
2019-04-14T11:14:18.170Z,26.20
2019-04-14T11:19:23.028Z,26.80
2019-04-14T11:24:28.176Z,26.60
2019-04-14T11:29:33.003Z,27.70
2019-04-14T11:34:39.737Z,28.90
2019-04-14T11:39:46.487Z,28.30
2019-04-14T11:44:51.343Z,28.50
2019-04-14T11:49:56.671Z,29.10
2019-04-14T11:55:01.409Z,28.90
2019-04-14T12:00:09.091Z,29.60
2019-04-14T12:05:15.631Z,30.20
2019-04-14T12:10:22.218Z,30.20
2019-04-14T12:15:28.197Z,30.60
2019-04-14T12:20:33.362Z,30.80
2019-04-14T12:25:38.612Z,30.70
2019-04-14T12:30:44.309Z,30.40
2019-04-14T12:35:50.274Z,29.90
2019-04-14T12:40:57.595Z,30.70
2019-04-14T12:46:06.052Z,31.50
2019-04-14T12:51:11.903Z,31.60
2019-04-14T12:56:18.517Z,30.90
2019-04-14T13:01:25.022Z,30.70
2019-04-14T13:06:30.855Z,30.90
2019-04-14T13:11:36.960Z,30.90
2019-04-14T13:16:41.920Z,30.70
2019-04-14T13:21:46.788Z,30.80
2019-04-14T13:26:51.764Z,30.80
2019-04-14T13:31:56.695Z,31.30
2019-04-14T13:37:01.498Z,31.60
2019-04-14T13:42:06.992Z,31.50
2019-04-14T13:47:12.103Z,31.20
2019-04-14T13:52:16.996Z,30.60
2019-04-14T13:57:21.816Z,30.80
2019-04-14T14:02:27.759Z,30.10
2019-04-14T14:07:32.647Z,30.40
2019-04-14T14:12:38.997Z,30.80
2019-04-14T14:17:45.392Z,30.30
2019-04-14T14:22:59.341Z,29.60
2019-04-14T14:27:58.526Z,29.30
2019-04-14T14:33:03.582Z,28.80
2019-04-14T14:38:08.325Z,29.10
2019-04-14T14:43:13.160Z,29.20
2019-04-14T14:48:19.674Z,29.10
2019-04-14T14:53:24.565Z,29.40
2019-04-14T14:58:30.464Z,28.70
2019-04-14T15:04:12.013Z,28.70
2019-04-14T15:09:16.917Z,28.00
2019-04-14T15:14:21.824Z,27.40
2019-04-14T15:19:26.619Z,27.50
2019-04-14T15:24:31.348Z,26.90
2019-04-14T15:29:36.168Z,25.80
2019-04-14T15:34:41.063Z,25.90
2019-04-14T15:39:45.888Z,26.80
2019-04-14T15:44:50.792Z,26.80
2019-04-14T15:49:55.598Z,26.00
2019-04-14T15:55:00.378Z,24.90
2019-04-14T16:00:13.646Z,25.00
2019-04-14T16:05:21.982Z,25.20
2019-04-14T16:11:03.195Z,24.80
2019-04-14T16:16:19.162Z,24.50
2019-04-14T16:21:24.893Z,24.30
2019-04-14T16:26:33.047Z,23.30
2019-04-14T16:31:49.134Z,23.00
2019-04-14T16:36:54.909Z,22.90
2019-04-14T16:41:59.803Z,22.00
2019-04-14T16:47:06.341Z,21.50
2019-04-14T16:52:10.991Z,20.70
2019-04-14T16:57:17.462Z,19.40
2019-04-14T17:02:22.244Z,18.90
2019-04-14T17:07:28.402Z,17.70
2019-04-14T17:12:33.325Z,16.90
2019-04-14T17:17:37.943Z,16.40
2019-04-14T17:22:44.418Z,15.60
2019-04-14T17:27:51.078Z,14.90
2019-04-14T17:32:58.041Z,14.30
2019-04-14T17:38:04.629Z,13.90
2019-04-14T17:43:11.094Z,13.50
2019-04-14T17:48:17.522Z,13.10
2019-04-14T17:53:24.161Z,12.70
2019-04-14T17:58:30.797Z,12.20
2019-04-14T18:03:38.608Z,11.90
2019-04-14T18:08:45.158Z,11.60
2019-04-14T18:13:51.508Z,11.30
2019-04-14T18:18:57.847Z,11.00
2019-04-14T18:24:03.381Z,10.80
2019-04-14T18:29:10.267Z,10.50
2019-04-14T18:34:16.805Z,10.30
2019-04-14T18:39:22.624Z,10.10
2019-04-14T18:44:29.290Z,10.10
2019-04-14T18:49:36.271Z,10.00
2019-04-14T18:54:54.028Z,9.80
2019-04-14T18:59:50.989Z,9.70
2019-04-14T19:04:55.920Z,9.60
2019-04-14T19:10:00.737Z,9.50
2019-04-14T19:15:08.559Z,9.40
2019-04-14T19:20:15.635Z,9.20
2019-04-14T19:25:20.491Z,9.10
2019-04-14T19:30:25.706Z,9.00
2019-04-14T19:35:30.808Z,9.00
2019-04-14T19:40:36.022Z,8.80
2019-04-14T19:45:42.412Z,8.70
2019-04-14T19:50:47.425Z,8.60
2019-04-14T19:55:52.747Z,8.40
2019-04-14T20:00:57.869Z,8.20
2019-04-14T20:06:02.792Z,8.00
2019-04-14T20:11:07.767Z,7.90
2019-04-14T20:16:14.818Z,7.70
2019-04-14T20:21:21.534Z,7.50
2019-04-14T20:26:28.037Z,7.40
2019-04-14T20:31:32.724Z,7.20
2019-04-14T20:36:38.147Z,7.10
2019-04-14T20:41:43.400Z,7.00
2019-04-14T20:46:48.164Z,6.90
2019-04-14T20:51:53.140Z,6.80
2019-04-14T20:57:34.484Z,6.70
2019-04-14T21:02:41.956Z,6.60
2019-04-14T21:07:48.628Z,6.40
2019-04-14T21:12:55.201Z,6.30
2019-04-14T21:18:01.698Z,6.20
2019-04-14T21:23:06.670Z,6.10
2019-04-14T21:28:13.343Z,6.00
2019-04-14T21:33:21.111Z,5.80
2019-04-14T21:38:27.932Z,5.70
2019-04-14T21:43:33.223Z,5.60
2019-04-14T21:48:38.205Z,5.50
2019-04-14T21:53:44.507Z,5.40
2019-04-14T21:58:51.149Z,5.20
2019-04-14T22:03:58.141Z,5.10
2019-04-14T22:09:04.725Z,5.10
2019-04-14T22:14:11.165Z,5.00
2019-04-14T22:19:16.144Z,4.90
2019-04-14T22:24:22.063Z,4.80
2019-04-14T22:29:27.104Z,4.70
2019-04-14T22:34:32.039Z,4.60
2019-04-14T22:39:39.230Z,4.50
2019-04-14T22:44:43.485Z,4.40
2019-04-14T22:49:48.415Z,4.30
2019-04-14T22:54:53.309Z,4.20
2019-04-14T22:59:58.101Z,4.10
2019-04-14T23:05:04.463Z,4.00
2019-04-14T23:10:11.010Z,4.00
2019-04-14T23:15:17.428Z,3.90
2019-04-14T23:20:23.909Z,3.70
2019-04-14T23:25:28.915Z,3.60
2019-04-14T23:30:33.771Z,3.50
2019-04-14T23:35:38.610Z,3.50
2019-04-14T23:40:43.307Z,3.30
2019-04-14T23:45:48.058Z,3.20
2019-04-14T23:50:53.069Z,3.20
2019-04-14T23:55:58.081Z,3.10
